sensor_id;sensor_type;location;lat;lon;timestamp;P1;durP1;ratioP1;P2;durP2;ratioP2
40599;SDS011;26309;50.924;4.754;2023-05-19T00:01:36;24.37;;;10.63;;
40599;SDS011;26309;50.924;4.754;2023-05-19T00:04:02;15.17;;;10.90;;
40599;SDS011;26309;50.924;4.754;2023-05-19T00:06:30;17.77;;;11.67;;
40599;SDS011;26309;50.924;4.754;2023-05-19T00:08:58;14.27;;;10.63;;
40599;SDS011;26309;50.924;4.754;2023-05-19T00:11:29;18.27;;;11.67;;
40599;SDS011;26309;50.924;4.754;2023-05-19T00:13:56;19.50;;;11.00;;
40599;SDS011;26309;50.924;4.754;2023-05-19T00:16:23;16.77;;;11.77;;
40599;SDS011;26309;50.924;4.754;2023-05-19T00:18:51;15.93;;;11.20;;
40599;SDS011;26309;50.924;4.754;2023-05-19T00:21:17;16.03;;;11.77;;
40599;SDS011;26309;50.924;4.754;2023-05-19T00:23:43;20.40;;;11.60;;
40599;SDS011;26309;50.924;4.754;2023-05-19T00:26:09;19.23;;;11.83;;
40599;SDS011;26309;50.924;4.754;2023-05-19T00:28:35;20.07;;;11.70;;
40599;SDS011;26309;50.924;4.754;2023-05-19T00:31:01;17.13;;;11.77;;
40599;SDS011;26309;50.924;4.754;2023-05-19T00:33:29;16.90;;;10.90;;
40599;SDS011;26309;50.924;4.754;2023-05-19T00:35:55;19.67;;;11.17;;
40599;SDS011;26309;50.924;4.754;2023-05-19T00:38:21;17.07;;;11.40;;
40599;SDS011;26309;50.924;4.754;2023-05-19T00:40:47;16.77;;;11.20;;
40599;SDS011;26309;50.924;4.754;2023-05-19T00:43:14;15.67;;;11.50;;
40599;SDS011;26309;50.924;4.754;2023-05-19T00:45:40;15.33;;;10.80;;
40599;SDS011;26309;50.924;4.754;2023-05-19T00:48:05;13.73;;;10.80;;
40599;SDS011;26309;50.924;4.754;2023-05-19T00:50:31;20.17;;;11.87;;
40599;SDS011;26309;50.924;4.754;2023-05-19T00:52:57;20.47;;;11.73;;
40599;SDS011;26309;50.924;4.754;2023-05-19T00:55:25;22.33;;;12.80;;
40599;SDS011;26309;50.924;4.754;2023-05-19T00:57:54;22.13;;;11.90;;
40599;SDS011;26309;50.924;4.754;2023-05-19T01:00:21;17.10;;;12.80;;
40599;SDS011;26309;50.924;4.754;2023-05-19T01:02:47;20.43;;;13.07;;
40599;SDS011;26309;50.924;4.754;2023-05-19T01:05:14;26.20;;;13.00;;
40599;SDS011;26309;50.924;4.754;2023-05-19T01:07:41;18.40;;;12.97;;
40599;SDS011;26309;50.924;4.754;2023-05-19T01:10:07;19.90;;;13.27;;
40599;SDS011;26309;50.924;4.754;2023-05-19T01:12:34;17.17;;;12.30;;
40599;SDS011;26309;50.924;4.754;2023-05-19T01:15:01;17.20;;;13.43;;
40599;SDS011;26309;50.924;4.754;2023-05-19T01:17:32;18.43;;;13.23;;
40599;SDS011;26309;50.924;4.754;2023-05-19T01:25:53;19.80;;;13.90;;
40599;SDS011;26309;50.924;4.754;2023-05-19T01:31:22;19.13;;;13.73;;
40599;SDS011;26309;50.924;4.754;2023-05-19T01:33:50;17.40;;;12.30;;
40599;SDS011;26309;50.924;4.754;2023-05-19T01:36:18;21.00;;;12.70;;
40599;SDS011;26309;50.924;4.754;2023-05-19T01:38:46;19.50;;;13.10;;
40599;SDS011;26309;50.924;4.754;2023-05-19T01:41:15;17.90;;;12.70;;
40599;SDS011;26309;50.924;4.754;2023-05-19T01:43:42;21.87;;;13.80;;
40599;SDS011;26309;50.924;4.754;2023-05-19T01:46:08;17.60;;;13.30;;
40599;SDS011;26309;50.924;4.754;2023-05-19T01:48:34;19.43;;;13.90;;
40599;SDS011;26309;50.924;4.754;2023-05-19T01:51:01;16.80;;;12.90;;
40599;SDS011;26309;50.924;4.754;2023-05-19T01:53:27;14.40;;;12.23;;
40599;SDS011;26309;50.924;4.754;2023-05-19T01:55:53;19.90;;;13.37;;
40599;SDS011;26309;50.924;4.754;2023-05-19T02:01:56;18.57;;;13.53;;
40599;SDS011;26309;50.924;4.754;2023-05-19T02:07:04;22.63;;;13.83;;
40599;SDS011;26309;50.924;4.754;2023-05-19T02:09:53;23.07;;;14.03;;
40599;SDS011;26309;50.924;4.754;2023-05-19T02:12:31;21.10;;;14.00;;
40599;SDS011;26309;50.924;4.754;2023-05-19T02:15:20;19.83;;;14.67;;
40599;SDS011;26309;50.924;4.754;2023-05-19T02:17:50;25.63;;;15.53;;
40599;SDS011;26309;50.924;4.754;2023-05-19T02:20:19;23.60;;;14.77;;
40599;SDS011;26309;50.924;4.754;2023-05-19T02:22:46;23.53;;;15.37;;
40599;SDS011;26309;50.924;4.754;2023-05-19T02:25:13;23.10;;;15.13;;
40599;SDS011;26309;50.924;4.754;2023-05-19T02:27:39;19.47;;;14.03;;
40599;SDS011;26309;50.924;4.754;2023-05-19T02:30:06;21.60;;;15.00;;
40599;SDS011;26309;50.924;4.754;2023-05-19T02:32:33;24.20;;;15.47;;
40599;SDS011;26309;50.924;4.754;2023-05-19T02:35:00;25.30;;;14.20;;
40599;SDS011;26309;50.924;4.754;2023-05-19T02:37:26;21.83;;;13.90;;
40599;SDS011;26309;50.924;4.754;2023-05-19T02:39:53;21.10;;;14.07;;
40599;SDS011;26309;50.924;4.754;2023-05-19T02:42:19;23.63;;;14.17;;
40599;SDS011;26309;50.924;4.754;2023-05-19T02:44:45;21.47;;;15.03;;
40599;SDS011;26309;50.924;4.754;2023-05-19T02:47:11;28.13;;;16.03;;
40599;SDS011;26309;50.924;4.754;2023-05-19T02:49:37;26.40;;;15.10;;
40599;SDS011;26309;50.924;4.754;2023-05-19T02:52:04;23.37;;;14.10;;
40599;SDS011;26309;50.924;4.754;2023-05-19T02:54:31;19.67;;;14.77;;
40599;SDS011;26309;50.924;4.754;2023-05-19T02:56:58;20.50;;;15.13;;
40599;SDS011;26309;50.924;4.754;2023-05-19T02:59:24;22.80;;;15.10;;
40599;SDS011;26309;50.924;4.754;2023-05-19T03:01:51;21.97;;;15.60;;
40599;SDS011;26309;50.924;4.754;2023-05-19T03:04:19;21.30;;;14.33;;
40599;SDS011;26309;50.924;4.754;2023-05-19T03:06:45;22.03;;;15.60;;
40599;SDS011;26309;50.924;4.754;2023-05-19T03:09:11;22.60;;;16.10;;
40599;SDS011;26309;50.924;4.754;2023-05-19T03:11:38;26.83;;;15.73;;
40599;SDS011;26309;50.924;4.754;2023-05-19T03:14:04;21.60;;;15.90;;
40599;SDS011;26309;50.924;4.754;2023-05-19T03:16:30;27.50;;;15.77;;
40599;SDS011;26309;50.924;4.754;2023-05-19T03:18:56;24.97;;;15.67;;
40599;SDS011;26309;50.924;4.754;2023-05-19T03:21:23;24.97;;;16.03;;
40599;SDS011;26309;50.924;4.754;2023-05-19T03:23:49;25.13;;;16.03;;
40599;SDS011;26309;50.924;4.754;2023-05-19T03:26:15;24.73;;;15.47;;
40599;SDS011;26309;50.924;4.754;2023-05-19T03:28:41;24.63;;;16.47;;
40599;SDS011;26309;50.924;4.754;2023-05-19T03:31:07;30.50;;;16.83;;
40599;SDS011;26309;50.924;4.754;2023-05-19T03:33:32;31.00;;;16.70;;
40599;SDS011;26309;50.924;4.754;2023-05-19T03:35:58;23.63;;;16.43;;
40599;SDS011;26309;50.924;4.754;2023-05-19T03:38:24;24.77;;;17.07;;
40599;SDS011;26309;50.924;4.754;2023-05-19T03:40:50;27.40;;;16.03;;
40599;SDS011;26309;50.924;4.754;2023-05-19T03:43:16;22.73;;;15.53;;
40599;SDS011;26309;50.924;4.754;2023-05-19T03:45:41;25.50;;;16.03;;
40599;SDS011;26309;50.924;4.754;2023-05-19T03:48:07;23.07;;;15.97;;
40599;SDS011;26309;50.924;4.754;2023-05-19T03:50:33;21.30;;;14.90;;
40599;SDS011;26309;50.924;4.754;2023-05-19T03:52:59;24.10;;;16.87;;
40599;SDS011;26309;50.924;4.754;2023-05-19T03:55:25;25.87;;;16.63;;
40599;SDS011;26309;50.924;4.754;2023-05-19T03:57:54;22.97;;;14.97;;
40599;SDS011;26309;50.924;4.754;2023-05-19T04:00:20;21.57;;;15.13;;
40599;SDS011;26309;50.924;4.754;2023-05-19T04:02:46;22.67;;;15.57;;
40599;SDS011;26309;50.924;4.754;2023-05-19T04:05:12;24.30;;;15.93;;
40599;SDS011;26309;50.924;4.754;2023-05-19T04:07:38;21.47;;;15.53;;
40599;SDS011;26309;50.924;4.754;2023-05-19T04:10:05;20.27;;;15.00;;
40599;SDS011;26309;50.924;4.754;2023-05-19T04:12:31;18.93;;;14.03;;
40599;SDS011;26309;50.924;4.754;2023-05-19T04:14:57;21.87;;;13.93;;
40599;SDS011;26309;50.924;4.754;2023-05-19T04:17:24;16.30;;;14.47;;
40599;SDS011;26309;50.924;4.754;2023-05-19T04:19:52;24.77;;;15.40;;
40599;SDS011;26309;50.924;4.754;2023-05-19T04:22:19;23.13;;;14.07;;
40599;SDS011;26309;50.924;4.754;2023-05-19T04:24:45;20.20;;;14.30;;
40599;SDS011;26309;50.924;4.754;2023-05-19T04:27:11;21.97;;;14.30;;
40599;SDS011;26309;50.924;4.754;2023-05-19T04:29:37;21.13;;;15.03;;
40599;SDS011;26309;50.924;4.754;2023-05-19T04:32:05;18.23;;;14.30;;
40599;SDS011;26309;50.924;4.754;2023-05-19T04:34:34;22.17;;;14.47;;
40599;SDS011;26309;50.924;4.754;2023-05-19T04:37:07;19.53;;;14.07;;
40599;SDS011;26309;50.924;4.754;2023-05-19T04:39:34;18.50;;;13.30;;
40599;SDS011;26309;50.924;4.754;2023-05-19T04:42:03;21.93;;;14.77;;
40599;SDS011;26309;50.924;4.754;2023-05-19T04:44:29;18.17;;;14.03;;
40599;SDS011;26309;50.924;4.754;2023-05-19T04:46:55;21.97;;;14.10;;
40599;SDS011;26309;50.924;4.754;2023-05-19T04:49:22;19.83;;;13.70;;
40599;SDS011;26309;50.924;4.754;2023-05-19T04:51:48;21.43;;;14.47;;
40599;SDS011;26309;50.924;4.754;2023-05-19T04:54:15;19.17;;;14.40;;
40599;SDS011;26309;50.924;4.754;2023-05-19T04:56:41;22.30;;;14.63;;
40599;SDS011;26309;50.924;4.754;2023-05-19T04:59:08;19.83;;;13.30;;
40599;SDS011;26309;50.924;4.754;2023-05-19T05:01:34;18.43;;;13.60;;
40599;SDS011;26309;50.924;4.754;2023-05-19T05:04:05;17.17;;;12.87;;
40599;SDS011;26309;50.924;4.754;2023-05-19T05:06:31;19.73;;;12.30;;
40599;SDS011;26309;50.924;4.754;2023-05-19T05:08:57;14.33;;;11.67;;
40599;SDS011;26309;50.924;4.754;2023-05-19T05:11:31;14.37;;;11.87;;
40599;SDS011;26309;50.924;4.754;2023-05-19T05:13:57;16.00;;;12.30;;
40599;SDS011;26309;50.924;4.754;2023-05-19T05:16:23;14.50;;;11.83;;
40599;SDS011;26309;50.924;4.754;2023-05-19T05:18:50;14.03;;;10.60;;
40599;SDS011;26309;50.924;4.754;2023-05-19T05:21:16;13.40;;;11.53;;
40599;SDS011;26309;50.924;4.754;2023-05-19T05:23:42;18.03;;;11.77;;
40599;SDS011;26309;50.924;4.754;2023-05-19T05:26:09;16.53;;;11.83;;
40599;SDS011;26309;50.924;4.754;2023-05-19T05:28:44;15.00;;;11.90;;
40599;SDS011;26309;50.924;4.754;2023-05-19T05:31:10;14.25;;;11.88;;
40599;SDS011;26309;50.924;4.754;2023-05-19T05:33:37;16.15;;;11.57;;
40599;SDS011;26309;50.924;4.754;2023-05-19T05:36:03;19.20;;;12.35;;
40599;SDS011;26309;50.924;4.754;2023-05-19T05:38:29;15.98;;;12.23;;
40599;SDS011;26309;50.924;4.754;2023-05-19T05:40:55;14.38;;;11.32;;
40599;SDS011;26309;50.924;4.754;2023-05-19T05:43:21;15.20;;;10.95;;
40599;SDS011;26309;50.924;4.754;2023-05-19T05:45:47;18.30;;;13.32;;
40599;SDS011;26309;50.924;4.754;2023-05-19T05:48:13;17.85;;;13.05;;
40599;SDS011;26309;50.924;4.754;2023-05-19T05:50:39;27.35;;;14.07;;
40599;SDS011;26309;50.924;4.754;2023-05-19T05:53:08;19.10;;;12.15;;
40599;SDS011;26309;50.924;4.754;2023-05-19T05:55:37;17.48;;;12.65;;
40599;SDS011;26309;50.924;4.754;2023-05-19T05:58:03;17.10;;;12.43;;
40599;SDS011;26309;50.924;4.754;2023-05-19T06:00:29;22.45;;;13.18;;
40599;SDS011;26309;50.924;4.754;2023-05-19T06:02:56;16.00;;;12.13;;
40599;SDS011;26309;50.924;4.754;2023-05-19T06:05:23;15.43;;;12.45;;
40599;SDS011;26309;50.924;4.754;2023-05-19T06:07:49;14.73;;;12.13;;
40599;SDS011;26309;50.924;4.754;2023-05-19T06:10:15;15.55;;;12.00;;
40599;SDS011;26309;50.924;4.754;2023-05-19T06:12:41;15.00;;;12.00;;
40599;SDS011;26309;50.924;4.754;2023-05-19T06:15:08;17.67;;;12.30;;
40599;SDS011;26309;50.924;4.754;2023-05-19T06:17:34;14.63;;;12.00;;
40599;SDS011;26309;50.924;4.754;2023-05-19T06:20:01;21.77;;;13.05;;
40599;SDS011;26309;50.924;4.754;2023-05-19T06:22:28;19.60;;;13.40;;
40599;SDS011;26309;50.924;4.754;2023-05-19T06:24:54;19.17;;;13.02;;
40599;SDS011;26309;50.924;4.754;2023-05-19T06:27:20;22.08;;;12.05;;
40599;SDS011;26309;50.924;4.754;2023-05-19T06:29:46;21.25;;;12.40;;
40599;SDS011;26309;50.924;4.754;2023-05-19T06:32:12;18.38;;;12.80;;
40599;SDS011;26309;50.924;4.754;2023-05-19T06:34:38;22.30;;;12.75;;
40599;SDS011;26309;50.924;4.754;2023-05-19T06:37:04;19.40;;;12.10;;
40599;SDS011;26309;50.924;4.754;2023-05-19T06:39:31;17.17;;;11.85;;
40599;SDS011;26309;50.924;4.754;2023-05-19T06:41:57;21.60;;;12.15;;
40599;SDS011;26309;50.924;4.754;2023-05-19T06:44:23;22.15;;;12.85;;
40599;SDS011;26309;50.924;4.754;2023-05-19T06:46:51;20.02;;;12.10;;
40599;SDS011;26309;50.924;4.754;2023-05-19T06:49:17;18.30;;;12.93;;
40599;SDS011;26309;50.924;4.754;2023-05-19T06:51:43;20.98;;;12.85;;
40599;SDS011;26309;50.924;4.754;2023-05-19T06:54:08;16.23;;;12.23;;
40599;SDS011;26309;50.924;4.754;2023-05-19T06:56:40;15.85;;;11.95;;
40599;SDS011;26309;50.924;4.754;2023-05-19T06:59:06;19.90;;;12.80;;
40599;SDS011;26309;50.924;4.754;2023-05-19T07:01:31;20.83;;;12.77;;
40599;SDS011;26309;50.924;4.754;2023-05-19T07:03:58;20.98;;;12.45;;
40599;SDS011;26309;50.924;4.754;2023-05-19T07:06:24;20.13;;;12.98;;
40599;SDS011;26309;50.924;4.754;2023-05-19T07:08:50;17.85;;;11.95;;
40599;SDS011;26309;50.924;4.754;2023-05-19T07:11:15;18.38;;;12.48;;
40599;SDS011;26309;50.924;4.754;2023-05-19T07:13:41;22.80;;;11.27;;
40599;SDS011;26309;50.924;4.754;2023-05-19T07:16:07;18.40;;;10.82;;
40599;SDS011;26309;50.924;4.754;2023-05-19T07:18:33;17.08;;;10.75;;
40599;SDS011;26309;50.924;4.754;2023-05-19T07:20:59;22.25;;;9.55;;
40599;SDS011;26309;50.924;4.754;2023-05-19T07:23:25;16.83;;;9.98;;
40599;SDS011;26309;50.924;4.754;2023-05-19T07:25:54;13.95;;;9.65;;
40599;SDS011;26309;50.924;4.754;2023-05-19T07:28:20;17.15;;;10.32;;
40599;SDS011;26309;50.924;4.754;2023-05-19T07:30:46;16.30;;;9.85;;
40599;SDS011;26309;50.924;4.754;2023-05-19T07:33:13;16.70;;;9.68;;
40599;SDS011;26309;50.924;4.754;2023-05-19T07:35:39;19.33;;;9.95;;
40599;SDS011;26309;50.924;4.754;2023-05-19T07:38:05;17.85;;;9.68;;
40599;SDS011;26309;50.924;4.754;2023-05-19T07:40:31;14.30;;;9.27;;
40599;SDS011;26309;50.924;4.754;2023-05-19T07:42:57;17.05;;;9.88;;
40599;SDS011;26309;50.924;4.754;2023-05-19T07:45:23;14.90;;;10.20;;
40599;SDS011;26309;50.924;4.754;2023-05-19T07:47:49;16.42;;;10.25;;
40599;SDS011;26309;50.924;4.754;2023-05-19T07:50:15;19.58;;;10.18;;
40599;SDS011;26309;50.924;4.754;2023-05-19T07:52:41;13.23;;;9.85;;
40599;SDS011;26309;50.924;4.754;2023-05-19T07:55:07;14.30;;;9.60;;
40599;SDS011;26309;50.924;4.754;2023-05-19T07:57:33;13.63;;;10.20;;
40599;SDS011;26309;50.924;4.754;2023-05-19T07:59:59;15.63;;;10.52;;
40599;SDS011;26309;50.924;4.754;2023-05-19T08:02:25;14.95;;;9.48;;
40599;SDS011;26309;50.924;4.754;2023-05-19T08:04:51;14.15;;;10.25;;
40599;SDS011;26309;50.924;4.754;2023-05-19T08:07:17;13.63;;;10.18;;
40599;SDS011;26309;50.924;4.754;2023-05-19T08:09:42;17.23;;;10.13;;
40599;SDS011;26309;50.924;4.754;2023-05-19T08:12:08;19.48;;;12.30;;
40599;SDS011;26309;50.924;4.754;2023-05-19T08:14:34;15.88;;;10.02;;
40599;SDS011;26309;50.924;4.754;2023-05-19T08:17:00;14.60;;;9.68;;
40599;SDS011;26309;50.924;4.754;2023-05-19T08:19:26;14.05;;;8.65;;
40599;SDS011;26309;50.924;4.754;2023-05-19T08:21:52;20.00;;;8.02;;
40599;SDS011;26309;50.924;4.754;2023-05-19T08:24:18;15.05;;;8.30;;
40599;SDS011;26309;50.924;4.754;2023-05-19T08:26:44;15.05;;;8.32;;
40599;SDS011;26309;50.924;4.754;2023-05-19T08:29:09;16.60;;;8.57;;
40599;SDS011;26309;50.924;4.754;2023-05-19T08:31:35;16.65;;;8.13;;
40599;SDS011;26309;50.924;4.754;2023-05-19T08:34:01;15.52;;;7.88;;
40599;SDS011;26309;50.924;4.754;2023-05-19T08:36:27;17.60;;;8.07;;
40599;SDS011;26309;50.924;4.754;2023-05-19T08:38:54;14.15;;;7.75;;
40599;SDS011;26309;50.924;4.754;2023-05-19T08:41:20;15.75;;;8.35;;
40599;SDS011;26309;50.924;4.754;2023-05-19T08:43:50;12.50;;;7.10;;
40599;SDS011;26309;50.924;4.754;2023-05-19T08:46:16;12.68;;;7.32;;
40599;SDS011;26309;50.924;4.754;2023-05-19T08:48:43;12.82;;;7.80;;
40599;SDS011;26309;50.924;4.754;2023-05-19T08:54:15;11.30;;;7.57;;
40599;SDS011;26309;50.924;4.754;2023-05-19T08:56:45;13.88;;;7.38;;
40599;SDS011;26309;50.924;4.754;2023-05-19T08:59:13;15.57;;;7.18;;
40599;SDS011;26309;50.924;4.754;2023-05-19T09:01:43;12.95;;;6.88;;
40599;SDS011;26309;50.924;4.754;2023-05-19T09:04:10;9.52;;;6.25;;
40599;SDS011;26309;50.924;4.754;2023-05-19T09:06:37;9.85;;;5.97;;
40599;SDS011;26309;50.924;4.754;2023-05-19T09:09:06;12.77;;;5.85;;
40599;SDS011;26309;50.924;4.754;2023-05-19T09:11:33;8.75;;;5.50;;
40599;SDS011;26309;50.924;4.754;2023-05-19T09:14:01;12.10;;;5.13;;
40599;SDS011;26309;50.924;4.754;2023-05-19T09:16:31;12.00;;;5.40;;
40599;SDS011;26309;50.924;4.754;2023-05-19T09:18:58;12.38;;;5.53;;
40599;SDS011;26309;50.924;4.754;2023-05-19T09:21:31;11.48;;;4.93;;
40599;SDS011;26309;50.924;4.754;2023-05-19T09:24:04;12.95;;;4.63;;
40599;SDS011;26309;50.924;4.754;2023-05-19T09:26:38;8.25;;;4.18;;
40599;SDS011;26309;50.924;4.754;2023-05-19T09:29:14;14.18;;;5.10;;
40599;SDS011;26309;50.924;4.754;2023-05-19T09:31:47;11.32;;;4.18;;
40599;SDS011;26309;50.924;4.754;2023-05-19T09:34:15;8.55;;;3.60;;
40599;SDS011;26309;50.924;4.754;2023-05-19T09:36:42;9.23;;;3.72;;
40599;SDS011;26309;50.924;4.754;2023-05-19T09:39:11;11.30;;;3.63;;
40599;SDS011;26309;50.924;4.754;2023-05-19T09:41:39;9.63;;;3.30;;
40599;SDS011;26309;50.924;4.754;2023-05-19T09:44:06;7.50;;;3.00;;
40599;SDS011;26309;50.924;4.754;2023-05-19T09:46:32;10.55;;;3.67;;
40599;SDS011;26309;50.924;4.754;2023-05-19T09:49:10;8.23;;;3.10;;
40599;SDS011;26309;50.924;4.754;2023-05-19T09:51:41;11.02;;;3.95;;
40599;SDS011;26309;50.924;4.754;2023-05-19T09:54:10;11.52;;;3.92;;
40599;SDS011;26309;50.924;4.754;2023-05-19T09:57:02;12.73;;;3.15;;
40599;SDS011;26309;50.924;4.754;2023-05-19T10:00:08;6.60;;;3.13;;
40599;SDS011;26309;50.924;4.754;2023-05-19T10:02:44;6.90;;;2.90;;
40599;SDS011;26309;50.924;4.754;2023-05-19T10:05:12;8.18;;;3.85;;
40599;SDS011;26309;50.924;4.754;2023-05-19T10:07:44;7.07;;;3.15;;
40599;SDS011;26309;50.924;4.754;2023-05-19T10:10:16;8.60;;;3.17;;
40599;SDS011;26309;50.924;4.754;2023-05-19T10:12:44;7.82;;;3.10;;
40599;SDS011;26309;50.924;4.754;2023-05-19T10:15:11;7.22;;;3.17;;
40599;SDS011;26309;50.924;4.754;2023-05-19T10:17:38;8.00;;;2.92;;
40599;SDS011;26309;50.924;4.754;2023-05-19T10:20:06;7.68;;;3.50;;
40599;SDS011;26309;50.924;4.754;2023-05-19T10:22:43;7.50;;;3.17;;
40599;SDS011;26309;50.924;4.754;2023-05-19T10:25:10;9.32;;;3.50;;
40599;SDS011;26309;50.924;4.754;2023-05-19T10:27:54;6.82;;;3.22;;
40599;SDS011;26309;50.924;4.754;2023-05-19T10:30:25;7.75;;;2.95;;
40599;SDS011;26309;50.924;4.754;2023-05-19T10:32:58;8.57;;;3.08;;
40599;SDS011;26309;50.924;4.754;2023-05-19T10:46:33;6.00;;;2.67;;
40599;SDS011;26309;50.924;4.754;2023-05-19T10:48:59;5.35;;;2.35;;
40599;SDS011;26309;50.924;4.754;2023-05-19T10:51:32;7.88;;;2.55;;
40599;SDS011;26309;50.924;4.754;2023-05-19T10:54:02;5.68;;;2.55;;
40599;SDS011;26309;50.924;4.754;2023-05-19T10:56:32;4.60;;;2.85;;
40599;SDS011;26309;50.924;4.754;2023-05-19T10:59:00;9.48;;;3.08;;
40599;SDS011;26309;50.924;4.754;2023-05-19T11:01:33;6.22;;;3.13;;
40599;SDS011;26309;50.924;4.754;2023-05-19T11:04:06;6.60;;;2.90;;
40599;SDS011;26309;50.924;4.754;2023-05-19T11:06:36;9.13;;;2.65;;
40599;SDS011;26309;50.924;4.754;2023-05-19T11:11:45;6.45;;;2.70;;
40599;SDS011;26309;50.924;4.754;2023-05-19T11:14:16;9.85;;;3.17;;
40599;SDS011;26309;50.924;4.754;2023-05-19T11:16:48;5.82;;;2.55;;
40599;SDS011;26309;50.924;4.754;2023-05-19T11:19:25;6.82;;;3.03;;
40599;SDS011;26309;50.924;4.754;2023-05-19T11:21:53;7.97;;;3.20;;
40599;SDS011;26309;50.924;4.754;2023-05-19T11:29:55;5.90;;;3.10;;
40599;SDS011;26309;50.924;4.754;2023-05-19T11:32:32;8.00;;;3.30;;
40599;SDS011;26309;50.924;4.754;2023-05-19T11:35:00;9.25;;;4.07;;
40599;SDS011;26309;50.924;4.754;2023-05-19T11:37:26;9.50;;;3.78;;
40599;SDS011;26309;50.924;4.754;2023-05-19T11:39:56;15.18;;;4.10;;
40599;SDS011;26309;50.924;4.754;2023-05-19T11:42:25;8.75;;;3.70;;
40599;SDS011;26309;50.924;4.754;2023-05-19T11:44:53;8.55;;;3.55;;
40599;SDS011;26309;50.924;4.754;2023-05-19T11:47:19;7.00;;;3.47;;
40599;SDS011;26309;50.924;4.754;2023-05-19T11:49:49;8.38;;;3.60;;
40599;SDS011;26309;50.924;4.754;2023-05-19T11:52:22;9.18;;;3.22;;
40599;SDS011;26309;50.924;4.754;2023-05-19T11:54:48;6.53;;;3.47;;
40599;SDS011;26309;50.924;4.754;2023-05-19T11:57:14;11.60;;;3.75;;
40599;SDS011;26309;50.924;4.754;2023-05-19T11:59:41;7.57;;;3.35;;
40599;SDS011;26309;50.924;4.754;2023-05-19T12:04:49;9.55;;;3.20;;
40599;SDS011;26309;50.924;4.754;2023-05-19T12:07:15;7.68;;;3.10;;
40599;SDS011;26309;50.924;4.754;2023-05-19T12:09:47;7.50;;;3.00;;
40599;SDS011;26309;50.924;4.754;2023-05-19T12:12:14;7.47;;;2.65;;
40599;SDS011;26309;50.924;4.754;2023-05-19T12:14:41;8.82;;;3.47;;
40599;SDS011;26309;50.924;4.754;2023-05-19T12:17:11;6.32;;;2.83;;
40599;SDS011;26309;50.924;4.754;2023-05-19T12:19:38;9.27;;;3.00;;
40599;SDS011;26309;50.924;4.754;2023-05-19T12:22:05;9.45;;;3.80;;
40599;SDS011;26309;50.924;4.754;2023-05-19T12:24:38;7.88;;;2.95;;
40599;SDS011;26309;50.924;4.754;2023-05-19T12:27:15;9.23;;;3.00;;
40599;SDS011;26309;50.924;4.754;2023-05-19T12:29:51;10.60;;;2.90;;
40599;SDS011;26309;50.924;4.754;2023-05-19T12:32:25;7.43;;;2.80;;
40599;SDS011;26309;50.924;4.754;2023-05-19T12:34:52;9.05;;;2.75;;
40599;SDS011;26309;50.924;4.754;2023-05-19T12:37:21;8.10;;;2.83;;
40599;SDS011;26309;50.924;4.754;2023-05-19T12:39:51;7.43;;;2.92;;
40599;SDS011;26309;50.924;4.754;2023-05-19T12:42:19;10.27;;;2.88;;
40599;SDS011;26309;50.924;4.754;2023-05-19T12:44:46;6.88;;;3.03;;
40599;SDS011;26309;50.924;4.754;2023-05-19T12:47:16;8.35;;;2.60;;
40599;SDS011;26309;50.924;4.754;2023-05-19T12:50:03;7.38;;;2.60;;
40599;SDS011;26309;50.924;4.754;2023-05-19T12:52:32;7.22;;;2.60;;
40599;SDS011;26309;50.924;4.754;2023-05-19T12:55:08;5.82;;;2.50;;
40599;SDS011;26309;50.924;4.754;2023-05-19T12:57:36;9.23;;;2.58;;
40599;SDS011;26309;50.924;4.754;2023-05-19T13:05:37;8.00;;;2.50;;
40599;SDS011;26309;50.924;4.754;2023-05-19T13:08:09;5.28;;;2.50;;
40599;SDS011;26309;50.924;4.754;2023-05-19T13:10:40;6.03;;;2.53;;
40599;SDS011;26309;50.924;4.754;2023-05-19T13:13:07;7.18;;;2.50;;
40599;SDS011;26309;50.924;4.754;2023-05-19T13:15:35;8.57;;;2.78;;
40599;SDS011;26309;50.924;4.754;2023-05-19T13:18:04;5.85;;;2.38;;
40599;SDS011;26309;50.924;4.754;2023-05-19T13:20:31;6.18;;;2.67;;
40599;SDS011;26309;50.924;4.754;2023-05-19T13:22:58;6.78;;;2.30;;
40599;SDS011;26309;50.924;4.754;2023-05-19T13:25:24;5.13;;;2.80;;
40599;SDS011;26309;50.924;4.754;2023-05-19T13:27:51;7.53;;;2.70;;
40599;SDS011;26309;50.924;4.754;2023-05-19T13:30:17;5.97;;;2.38;;
40599;SDS011;26309;50.924;4.754;2023-05-19T13:32:44;7.45;;;2.72;;
40599;SDS011;26309;50.924;4.754;2023-05-19T13:35:14;6.28;;;2.60;;
40599;SDS011;26309;50.924;4.754;2023-05-19T13:37:40;8.07;;;2.67;;
40599;SDS011;26309;50.924;4.754;2023-05-19T13:40:06;5.93;;;2.30;;
40599;SDS011;26309;50.924;4.754;2023-05-19T13:42:33;4.72;;;2.65;;
40599;SDS011;26309;50.924;4.754;2023-05-19T13:45:00;10.35;;;2.78;;
40599;SDS011;26309;50.924;4.754;2023-05-19T13:47:26;5.25;;;2.53;;
40599;SDS011;26309;50.924;4.754;2023-05-19T13:49:52;5.28;;;2.50;;
40599;SDS011;26309;50.924;4.754;2023-05-19T13:52:21;7.10;;;2.58;;
40599;SDS011;26309;50.924;4.754;2023-05-19T13:54:47;8.73;;;2.65;;
40599;SDS011;26309;50.924;4.754;2023-05-19T13:57:16;5.93;;;2.42;;
40599;SDS011;26309;50.924;4.754;2023-05-19T13:59:42;7.85;;;2.35;;
40599;SDS011;26309;50.924;4.754;2023-05-19T14:02:08;8.93;;;2.75;;
40599;SDS011;26309;50.924;4.754;2023-05-19T14:04:37;8.13;;;2.70;;
40599;SDS011;26309;50.924;4.754;2023-05-19T14:07:04;8.32;;;2.60;;
40599;SDS011;26309;50.924;4.754;2023-05-19T14:09:31;12.85;;;3.10;;
40599;SDS011;26309;50.924;4.754;2023-05-19T14:11:57;9.40;;;2.38;;
40599;SDS011;26309;50.924;4.754;2023-05-19T14:14:23;7.60;;;2.58;;
40599;SDS011;26309;50.924;4.754;2023-05-19T14:16:49;6.35;;;2.35;;
40599;SDS011;26309;50.924;4.754;2023-05-19T14:19:15;6.40;;;2.30;;
40599;SDS011;26309;50.924;4.754;2023-05-19T14:21:41;5.40;;;2.20;;
40599;SDS011;26309;50.924;4.754;2023-05-19T14:24:07;6.57;;;2.58;;
40599;SDS011;26309;50.924;4.754;2023-05-19T14:26:33;8.20;;;2.70;;
40599;SDS011;26309;50.924;4.754;2023-05-19T14:28:59;7.75;;;2.80;;
40599;SDS011;26309;50.924;4.754;2023-05-19T14:31:24;7.53;;;2.47;;
40599;SDS011;26309;50.924;4.754;2023-05-19T14:33:50;9.27;;;2.45;;
40599;SDS011;26309;50.924;4.754;2023-05-19T14:36:17;7.20;;;2.53;;
40599;SDS011;26309;50.924;4.754;2023-05-19T14:38:43;6.95;;;2.90;;
40599;SDS011;26309;50.924;4.754;2023-05-19T14:41:09;6.68;;;2.45;;
40599;SDS011;26309;50.924;4.754;2023-05-19T14:43:34;6.10;;;2.97;;
40599;SDS011;26309;50.924;4.754;2023-05-19T14:46:00;8.35;;;2.72;;
40599;SDS011;26309;50.924;4.754;2023-05-19T14:48:26;7.45;;;3.13;;
40599;SDS011;26309;50.924;4.754;2023-05-19T14:50:52;9.65;;;2.72;;
40599;SDS011;26309;50.924;4.754;2023-05-19T14:53:18;9.05;;;2.78;;
40599;SDS011;26309;50.924;4.754;2023-05-19T14:55:46;5.68;;;2.60;;
40599;SDS011;26309;50.924;4.754;2023-05-19T14:58:13;7.10;;;2.72;;
40599;SDS011;26309;50.924;4.754;2023-05-19T15:00:41;7.95;;;2.90;;
40599;SDS011;26309;50.924;4.754;2023-05-19T15:03:10;7.47;;;2.90;;
40599;SDS011;26309;50.924;4.754;2023-05-19T15:05:36;7.07;;;3.08;;
40599;SDS011;26309;50.924;4.754;2023-05-19T15:08:04;5.00;;;2.70;;
40599;SDS011;26309;50.924;4.754;2023-05-19T15:10:30;8.75;;;2.67;;
40599;SDS011;26309;50.924;4.754;2023-05-19T15:12:59;6.72;;;2.67;;
40599;SDS011;26309;50.924;4.754;2023-05-19T15:15:25;5.90;;;2.28;;
40599;SDS011;26309;50.924;4.754;2023-05-19T15:17:51;8.25;;;2.45;;
40599;SDS011;26309;50.924;4.754;2023-05-19T15:20:17;6.22;;;2.35;;
40599;SDS011;26309;50.924;4.754;2023-05-19T15:22:43;7.00;;;2.60;;